createdAt,value
2023-04-20T00:02:32.072Z,5.68
2023-04-20T00:06:34.381Z,5.05
2023-04-20T00:10:36.432Z,5.82
2023-04-20T00:14:38.421Z,3.10
2023-04-20T00:18:40.450Z,5.43
2023-04-20T00:22:43.002Z,3.97
2023-04-20T00:26:45.358Z,4.30
2023-04-20T00:30:47.469Z,4.80
2023-04-20T00:34:49.570Z,3.85
2023-04-20T00:38:52.040Z,3.40
2023-04-20T00:42:54.146Z,3.00
2023-04-20T00:46:59.004Z,3.88
2023-04-20T00:51:02.154Z,4.88
2023-04-20T00:55:06.271Z,4.03
2023-04-20T00:59:09.805Z,5.05
2023-04-20T01:03:12.131Z,3.97
2023-04-20T01:07:14.499Z,3.70
2023-04-20T01:11:16.575Z,7.32
2023-04-20T01:15:18.637Z,4.03
2023-04-20T01:19:21.889Z,4.32
2023-04-20T01:23:23.947Z,4.78
2023-04-20T01:27:26.236Z,4.03
2023-04-20T01:31:28.564Z,4.93
2023-04-20T01:35:30.650Z,3.67
2023-04-20T01:39:32.765Z,4.97
2023-04-20T01:43:36.181Z,3.03
2023-04-20T01:47:38.228Z,4.55
2023-04-20T01:51:42.273Z,4.50
2023-04-20T01:55:44.291Z,5.82
2023-04-20T01:59:46.384Z,7.57
2023-04-20T02:03:49.357Z,6.07
2023-04-20T02:07:51.806Z,3.80
2023-04-20T02:11:53.989Z,5.55
2023-04-20T02:15:56.968Z,7.35
2023-04-20T02:19:59.624Z,7.03
2023-04-20T02:24:01.669Z,5.53
2023-04-20T02:28:04.101Z,6.60
2023-04-20T02:32:07.767Z,5.35
2023-04-20T02:36:09.942Z,5.72
2023-04-20T02:40:12.834Z,4.90
2023-04-20T02:44:15.036Z,6.55
2023-04-20T02:48:17.214Z,5.30
2023-04-20T02:52:19.971Z,4.43
2023-04-20T02:56:22.448Z,5.07
2023-04-20T03:00:28.841Z,4.55
2023-04-20T03:04:39.226Z,4.22
2023-04-20T03:08:48.052Z,5.93
2023-04-20T03:13:23.683Z,5.20
2023-04-20T03:17:29.698Z,5.90
2023-04-20T03:21:32.961Z,5.47
2023-04-20T03:25:35.216Z,6.25
2023-04-20T03:29:44.475Z,5.47
2023-04-20T03:33:46.826Z,6.25
2023-04-20T03:37:48.991Z,4.90
2023-04-20T03:41:51.215Z,4.90
2023-04-20T03:45:53.250Z,7.05
2023-04-20T03:49:55.953Z,6.20
2023-04-20T03:53:58.046Z,4.82
2023-04-20T03:58:00.155Z,4.47
2023-04-20T04:02:10.877Z,5.47
2023-04-20T04:06:13.155Z,5.00
2023-04-20T04:10:18.843Z,4.97
2023-04-20T04:14:20.996Z,4.97
2023-04-20T04:18:23.164Z,6.88
2023-04-20T04:22:27.908Z,4.68
2023-04-20T04:26:50.046Z,4.90
2023-04-20T04:30:54.212Z,4.70
2023-04-20T04:34:57.561Z,5.05
2023-04-20T04:39:01.216Z,4.72
2023-04-20T04:43:03.981Z,5.65
2023-04-20T04:47:06.534Z,6.00
2023-04-20T04:51:09.363Z,5.72
2023-04-20T04:55:11.619Z,5.88
2023-04-20T04:59:13.631Z,4.80
2023-04-20T05:03:16.319Z,5.05
2023-04-20T05:07:18.467Z,5.30
2023-04-20T05:11:20.464Z,4.88
2023-04-20T05:15:22.565Z,5.45
2023-04-20T05:19:24.745Z,5.30
2023-04-20T05:23:26.750Z,6.13
2023-04-20T05:27:28.775Z,5.10
2023-04-20T05:31:33.210Z,5.45
2023-04-20T05:35:36.034Z,5.40
2023-04-20T05:39:38.026Z,5.75
2023-04-20T05:43:40.073Z,6.05
2023-04-20T05:47:42.157Z,5.65
2023-04-20T05:51:44.220Z,9.23
2023-04-20T05:55:46.213Z,6.47
2023-04-20T05:59:48.234Z,5.80
2023-04-20T06:03:50.537Z,6.22
2023-04-20T06:07:52.908Z,5.32
2023-04-20T06:11:54.908Z,6.10
2023-04-20T06:15:57.023Z,7.00
2023-04-20T06:19:59.074Z,8.00
2023-04-20T06:24:01.177Z,5.97
2023-04-20T06:28:06.280Z,5.85
2023-04-20T06:32:08.357Z,5.90
2023-04-20T06:36:10.457Z,6.68
2023-04-20T06:40:13.709Z,5.63
2023-04-20T06:44:17.590Z,4.75
2023-04-20T06:48:31.457Z,4.50
2023-04-20T06:52:37.419Z,4.55
2023-04-20T06:56:39.418Z,4.30
2023-04-20T07:00:41.742Z,4.13
2023-04-20T07:04:43.799Z,4.38
2023-04-20T07:08:45.912Z,4.63
2023-04-20T07:12:48.315Z,4.60
2023-04-20T07:16:54.106Z,4.35
2023-04-20T07:20:56.283Z,4.03
2023-04-20T07:24:58.284Z,4.40
2023-04-20T07:29:00.268Z,3.67
2023-04-20T07:33:02.359Z,5.00
2023-04-20T07:37:04.417Z,4.82
2023-04-20T07:41:10.225Z,5.00
2023-04-20T07:45:13.346Z,5.80
2023-04-20T07:49:16.083Z,5.60
2023-04-20T07:53:18.617Z,11.50
2023-04-20T07:57:21.072Z,4.00
2023-04-20T08:01:25.450Z,5.00
2023-04-20T08:05:27.711Z,5.72
2023-04-20T08:09:30.010Z,4.50
2023-04-20T08:13:32.219Z,5.35
2023-04-20T08:17:34.564Z,5.22
2023-04-20T08:21:37.709Z,5.10
2023-04-20T08:25:40.965Z,5.00
2023-04-20T08:29:43.005Z,6.28
2023-04-20T08:33:45.296Z,5.28
2023-04-20T08:37:47.314Z,5.75
2023-04-20T08:41:53.852Z,6.43
2023-04-20T08:45:59.596Z,5.80
2023-04-20T08:50:03.824Z,4.82
2023-04-20T08:54:06.967Z,5.13
2023-04-20T08:58:08.988Z,5.00
2023-04-20T09:02:12.281Z,5.32
2023-04-20T09:06:17.196Z,5.30
2023-04-20T09:10:19.253Z,4.95
2023-04-20T09:14:21.367Z,5.40
2023-04-20T09:18:24.761Z,5.50
2023-04-20T09:22:36.770Z,5.93
2023-04-20T09:26:38.878Z,5.53
2023-04-20T09:30:43.269Z,5.40
2023-04-20T09:34:45.512Z,4.72
2023-04-20T09:38:47.537Z,5.25
2023-04-20T09:42:50.906Z,5.93
2023-04-20T09:46:53.306Z,4.90
2023-04-20T09:50:55.957Z,7.10
2023-04-20T09:54:58.334Z,4.95
2023-04-20T09:59:01.612Z,6.05
2023-04-20T10:03:03.877Z,5.82
2023-04-20T10:07:07.507Z,5.50
2023-04-20T10:11:09.599Z,10.05
2023-04-20T10:15:12.146Z,6.03
2023-04-20T10:19:14.370Z,6.38
2023-04-20T10:23:18.663Z,6.38
2023-04-20T10:27:22.552Z,7.97
2023-04-20T10:31:36.024Z,9.15
2023-04-20T10:35:55.439Z,7.25
2023-04-20T10:39:57.857Z,6.07
2023-04-20T10:44:10.298Z,6.00
2023-04-20T10:48:14.107Z,5.75
2023-04-20T10:52:17.494Z,5.88
2023-04-20T10:56:19.802Z,7.82
2023-04-20T11:00:27.927Z,7.13
2023-04-20T11:04:33.861Z,8.25
2023-04-20T11:08:37.564Z,7.43
2023-04-20T11:12:40.046Z,6.10
2023-04-20T11:16:52.344Z,8.65
2023-04-20T11:20:55.702Z,6.72
2023-04-20T11:25:11.885Z,5.85
2023-04-20T11:29:13.955Z,6.60
2023-04-20T11:33:25.981Z,8.30
2023-04-20T11:37:29.139Z,9.30
2023-04-20T11:41:31.496Z,8.43
2023-04-20T11:45:36.266Z,11.32
2023-04-20T11:49:38.997Z,10.43
2023-04-20T11:53:41.650Z,10.88
2023-04-20T11:57:43.717Z,8.38
2023-04-20T12:01:47.045Z,8.85
2023-04-20T12:05:49.102Z,9.80
2023-04-20T12:09:51.204Z,8.18
2023-04-20T12:13:54.522Z,8.43
2023-04-20T12:17:56.654Z,6.72
2023-04-20T12:21:58.763Z,6.97
2023-04-20T12:26:00.888Z,5.93
2023-04-20T12:30:04.082Z,6.18
2023-04-20T12:34:06.511Z,4.57
2023-04-20T12:38:08.516Z,5.13
2023-04-20T12:42:10.546Z,6.15
2023-04-20T12:46:12.733Z,4.63
2023-04-20T12:50:14.778Z,4.63
2023-04-20T12:54:17.823Z,5.78
2023-04-20T12:58:20.156Z,4.95
2023-04-20T13:02:22.393Z,4.78
2023-04-20T13:06:24.620Z,5.03
2023-04-20T13:10:26.754Z,4.97
2023-04-20T13:14:28.752Z,4.63
2023-04-20T13:18:30.969Z,4.22
2023-04-20T13:22:33.887Z,4.45
2023-04-20T13:26:37.102Z,4.00
2023-04-20T13:30:39.154Z,4.03
2023-04-20T13:34:41.261Z,5.20
2023-04-20T13:38:43.250Z,3.67
2023-04-20T13:42:45.271Z,4.28
2023-04-20T13:46:48.177Z,4.22
2023-04-20T13:50:51.142Z,3.85
2023-04-20T13:54:53.195Z,3.13
2023-04-20T13:58:55.417Z,3.03
2023-04-20T14:02:57.601Z,3.85
2023-04-20T14:06:59.796Z,3.50
2023-04-20T14:11:02.121Z,4.13
2023-04-20T14:15:04.547Z,4.53
2023-04-20T14:19:06.699Z,4.00
2023-04-20T14:23:09.658Z,4.43
2023-04-20T14:27:11.972Z,5.05
2023-04-20T14:31:14.226Z,5.35
2023-04-20T14:35:16.244Z,5.40
2023-04-20T14:39:20.367Z,5.25
2023-04-20T14:43:23.025Z,4.93
2023-04-20T14:47:25.119Z,5.20
2023-04-20T14:51:28.106Z,4.90
2023-04-20T14:55:30.857Z,5.50
2023-04-20T14:59:33.894Z,6.57
2023-04-20T15:03:36.386Z,7.65
2023-04-20T15:07:38.635Z,5.88
2023-04-20T15:11:40.739Z,6.45
2023-04-20T15:19:49.363Z,5.95
2023-04-20T15:23:51.426Z,7.72
2023-04-20T15:27:53.449Z,7.13
2023-04-20T15:31:55.652Z,9.02
2023-04-20T15:35:57.700Z,7.95
2023-04-20T15:40:00.475Z,6.63
2023-04-20T15:44:02.707Z,7.38
2023-04-20T15:48:04.850Z,6.63
2023-04-20T15:52:11.082Z,6.60
2023-04-20T15:56:13.306Z,6.93
2023-04-20T16:00:15.784Z,7.88
2023-04-20T16:04:18.323Z,7.72
2023-04-20T16:08:21.199Z,6.45
2023-04-20T16:12:23.230Z,7.25
2023-04-20T16:16:25.477Z,7.90
2023-04-20T16:20:27.709Z,7.28
2023-04-20T16:24:29.685Z,7.90
2023-04-20T16:28:31.806Z,7.45
2023-04-20T16:32:34.605Z,8.10
2023-04-20T16:36:36.887Z,8.38
2023-04-20T16:40:38.899Z,7.63
2023-04-20T16:44:41.984Z,7.15
2023-04-20T16:48:44.164Z,7.22
2023-04-20T16:52:47.044Z,7.10
2023-04-20T16:56:49.090Z,7.57
2023-04-20T17:00:51.225Z,7.97
2023-04-20T17:04:53.252Z,8.05
2023-04-20T17:08:57.527Z,7.50
2023-04-20T17:12:59.689Z,8.77
2023-04-20T17:17:01.797Z,9.55
2023-04-20T17:21:04.555Z,11.13
2023-04-20T17:25:07.807Z,9.43
2023-04-20T17:29:10.012Z,10.52
2023-04-20T17:33:14.909Z,10.27
2023-04-20T17:37:17.971Z,11.27
2023-04-20T17:41:20.031Z,11.32
2023-04-20T17:45:22.307Z,12.52
2023-04-20T17:49:24.378Z,14.40
2023-04-20T17:53:26.416Z,14.30
2023-04-20T17:57:29.025Z,13.25
2023-04-20T18:01:34.442Z,15.52
2023-04-20T18:05:36.564Z,14.43
2023-04-20T18:09:39.732Z,15.35
2023-04-20T18:13:41.769Z,15.40
2023-04-20T18:17:44.337Z,17.30
2023-04-20T18:21:46.556Z,14.65
2023-04-20T18:25:48.556Z,15.23
2023-04-20T18:29:50.706Z,15.80
2023-04-20T18:33:52.713Z,16.55
2023-04-20T18:37:55.139Z,15.45
2023-04-20T18:41:57.199Z,14.93
2023-04-20T18:45:59.295Z,15.90
2023-04-20T18:50:01.529Z,16.75
2023-04-20T18:54:03.916Z,16.92
2023-04-20T18:58:05.896Z,18.30
2023-04-20T19:02:10.062Z,18.73
2023-04-20T19:06:12.298Z,18.52
2023-04-20T19:10:14.370Z,20.15
2023-04-20T19:14:16.739Z,20.73
2023-04-20T19:18:18.901Z,22.08
2023-04-20T19:22:20.920Z,23.92
2023-04-20T19:26:24.043Z,23.00
2023-04-20T19:30:26.239Z,22.02
2023-04-20T19:34:28.265Z,23.85
2023-04-20T19:38:31.538Z,22.85
2023-04-20T19:42:34.045Z,25.08
2023-04-20T19:46:36.146Z,25.10
2023-04-20T19:50:38.161Z,26.42
2023-04-20T19:54:40.188Z,29.83
2023-04-20T19:58:42.219Z,32.03
2023-04-20T20:02:44.335Z,31.92
2023-04-20T20:06:49.845Z,33.53
2023-04-20T20:10:51.867Z,29.60
2023-04-20T20:14:53.926Z,32.03
2023-04-20T20:18:56.276Z,31.30
2023-04-20T20:23:01.520Z,31.70
2023-04-20T20:27:04.669Z,34.65
2023-04-20T20:31:06.733Z,33.55
2023-04-20T20:35:11.496Z,31.25
2023-04-20T20:39:13.739Z,36.72
2023-04-20T20:43:17.350Z,35.20
2023-04-20T20:47:19.578Z,31.63
2023-04-20T20:51:21.605Z,32.90
2023-04-20T20:55:23.663Z,30.58
2023-04-20T20:59:25.793Z,31.42
2023-04-20T21:03:27.966Z,30.67
2023-04-20T21:07:30.178Z,35.35
2023-04-20T21:11:32.201Z,30.10
2023-04-20T21:15:34.272Z,31.92
2023-04-20T21:19:36.714Z,32.15
2023-04-20T21:23:38.755Z,30.63
2023-04-20T21:27:40.880Z,32.83
2023-04-20T21:31:43.055Z,37.17
2023-04-20T21:35:45.161Z,34.28
2023-04-20T21:39:47.215Z,37.17
2023-04-20T21:43:51.979Z,34.42
2023-04-20T21:47:55.409Z,37.70
2023-04-20T21:51:57.519Z,37.88
2023-04-20T21:55:59.596Z,36.35
2023-04-20T22:00:01.606Z,36.85
2023-04-20T22:04:04.585Z,40.78
2023-04-20T22:08:07.527Z,33.08
2023-04-20T22:12:09.529Z,32.88
2023-04-20T22:16:11.559Z,33.60
2023-04-20T22:20:15.194Z,33.95
2023-04-20T22:24:17.331Z,33.00
2023-04-20T22:28:19.362Z,35.25
2023-04-20T22:32:21.583Z,39.30
2023-04-20T22:36:23.977Z,36.60
2023-04-20T22:40:26.245Z,38.30
2023-04-20T22:44:28.249Z,38.05
2023-04-20T22:48:30.261Z,37.45
2023-04-20T22:52:32.375Z,37.38
2023-04-20T22:56:35.171Z,37.33
2023-04-20T23:00:37.208Z,38.58
2023-04-20T23:04:39.266Z,36.08
2023-04-20T23:08:41.427Z,37.50
2023-04-20T23:12:44.546Z,36.53
2023-04-20T23:16:46.651Z,38.28
2023-04-20T23:20:48.753Z,39.97
2023-04-20T23:24:50.820Z,41.88
2023-04-20T23:28:53.508Z,38.97
2023-04-20T23:32:55.601Z,40.08
2023-04-20T23:36:57.590Z,37.03
2023-04-20T23:40:59.672Z,35.05
2023-04-20T23:45:01.736Z,36.45
2023-04-20T23:49:04.041Z,34.25
2023-04-20T23:53:07.409Z,35.08
2023-04-20T23:57:09.408Z,33.33
